Time;durP1;ratioP1;P1;durP2;ratioP2;P2;SDS_P1;SDS_P2;PMS_P1;PMS_P2;Temp;Humidity;BMP_temperature;BMP_pressure;BME280_temperature;BME280_humidity;BME280_pressure;Samples;Min_cycle;Max_cycle;Signal;HPM_P1;HPM_P2
2022/03/22 00:00:36;;;;;;;26.02;19.92;;;;;;;;;;5047633;28;20040;-66
2022/03/22 00:03:03;;;;;;;25.13;19.35;;;16.50;81.80;;;;;;5033763;28;20076;-66
2022/03/22 00:05:28;;;;;;;28.02;21.33;;;16.20;81.70;;;;;;5035930;28;20051;-66
2022/03/22 00:07:54;;;;;;;28.15;20.40;;;16.50;81.60;;;;;;5036558;28;20033;-66
2022/03/22 00:10:20;;;;;;;27.00;20.20;;;16.50;81.60;;;;;;5036281;28;20406;-65
2022/03/22 00:12:48;;;;;;;27.40;21.17;;;;;;;;;;5036634;28;20045;-69
2022/03/22 00:15:14;;;;;;;27.00;20.92;;;16.40;81.50;;;;;;5054270;28;20057;-66
2022/03/22 00:17:40;;;;;;;28.20;20.98;;;16.50;81.70;;;;;;5056095;28;20155;-65
2022/03/22 00:20:07;;;;;;;25.52;19.40;;;16.50;81.50;;;;;;5044665;28;20449;-66
2022/03/22 00:22:33;;;;;;;28.13;20.67;;;16.40;81.40;;;;;;5035790;28;20049;-66
2022/03/22 00:24:59;;;;;;;26.90;20.63;;;16.60;81.40;;;;;;5043399;28;20056;-66
2022/03/22 00:27:25;;;;;;;26.80;20.27;;;16.70;81.60;;;;;;5037537;28;20040;-66
2022/03/22 00:29:51;;;;;;;27.23;19.92;;;;;;;;;;5037948;28;20044;-66
2022/03/22 00:32:17;;;;;;;28.33;20.88;;;16.70;81.50;;;;;;5037444;28;20522;-66
2022/03/22 00:34:46;;;;;;;25.85;19.90;;;16.40;81.30;;;;;;5054980;28;20041;-66
2022/03/22 00:37:14;;;;;;;28.15;20.90;;;16.40;78.50;;;;;;5056072;28;20138;-66
2022/03/22 00:39:44;;;;;;;27.85;20.85;;;16.10;81.00;;;;;;5037586;28;20056;-66
2022/03/22 00:42:14;;;;;;;28.45;20.92;;;16.40;81.20;;;;;;5037392;28;20084;-66
2022/03/22 00:44:39;;;;;;;25.92;19.92;;;16.40;81.20;;;;;;5037063;28;20052;-66
2022/03/22 00:47:08;;;;;;;28.42;20.58;;;16.60;78.10;;;;;;5055361;28;20055;-65
2022/03/22 00:49:36;;;;;;;26.77;20.77;;;16.50;81.20;;;;;;5036702;28;20556;-65
2022/03/22 00:52:04;;;;;;;26.60;21.13;;;16.30;80.90;;;;;;5038094;28;20049;-65
2022/03/22 00:54:31;;;;;;;29.48;20.83;;;16.50;78.20;;;;;;5055417;28;20047;-65
2022/03/22 00:56:58;;;;;;;32.10;20.23;;;16.50;80.90;;;;;;5055519;28;20039;-65
2022/03/22 01:02:08;;;;;;;28.05;20.58;;;16.50;80.90;;;;;;5041129;28;20052;-65
2022/03/22 01:04:35;;;;;;;27.20;20.85;;;16.40;81.00;;;;;;5054937;28;20041;-66
2022/03/22 01:07:02;;;;;;;29.98;21.33;;;16.30;81.00;;;;;;5054760;28;20045;-66
2022/03/22 01:09:29;;;;;;;27.02;20.10;;;16.40;81.10;;;;;;5036554;28;20045;-66
2022/03/22 01:11:56;;;;;;;27.30;21.13;;;16.40;80.90;;;;;;5020344;28;20055;-66
2022/03/22 01:14:22;;;;;;;27.50;21.40;;;16.30;80.70;;;;;;5054758;28;20049;-66
2022/03/22 01:16:48;;;;;;;27.20;20.23;;;16.40;80.90;;;;;;5039995;28;20037;-66
2022/03/22 01:19:13;;;;;;;25.65;20.58;;;16.50;80.80;;;;;;5054767;28;20526;-66
2022/03/22 01:21:40;;;;;;;28.60;20.88;;;;;;;;;;5055209;28;20052;-66
2022/03/22 01:24:07;;;;;;;28.70;21.85;;;16.40;80.70;;;;;;5054437;28;20065;-66
2022/03/22 01:26:33;;;;;;;29.92;21.35;;;16.40;80.70;;;;;;5054591;28;20098;-66
2022/03/22 01:28:59;;;;;;;29.35;21.10;;;;;;;;;;5054071;28;20398;-67
2022/03/22 01:31:25;;;;;;;27.85;21.15;;;16.50;80.80;;;;;;5054033;28;20044;-65
2022/03/22 01:33:51;;;;;;;30.45;21.55;;;16.30;80.40;;;;;;5048482;28;20038;-66
2022/03/22 01:36:17;;;;;;;27.95;21.65;;;16.20;80.40;;;;;;5054065;28;20390;-65
2022/03/22 01:38:44;;;;;;;28.50;22.13;;;16.40;80.50;;;;;;5054859;28;20048;-65
2022/03/22 01:41:10;;;;;;;27.67;21.30;;;16.40;77.80;;;;;;5054420;28;20049;-65
2022/03/22 01:43:36;;;;;;;27.92;21.50;;;16.30;80.50;;;;;;5036642;28;20045;-66
2022/03/22 01:46:02;;;;;;;30.25;22.70;;;16.40;80.60;;;;;;5053826;28;20132;-62
2022/03/22 01:48:28;;;;;;;30.65;22.55;;;16.10;79.70;;;;;;5053072;28;20037;-62
2022/03/22 01:50:54;;;;;;;27.40;21.75;;;16.30;80.30;;;;;;5048528;28;20059;-62
2022/03/22 01:53:20;;;;;;;27.30;20.08;;;16.30;77.60;;;;;;5036786;28;20049;-61
2022/03/22 01:55:46;;;;;;;28.02;21.23;;;16.40;80.50;;;;;;5053977;28;20540;-62
2022/03/22 01:58:13;;;;;;;29.70;21.98;;;16.40;80.50;;;;;;5053714;28;20041;-61
2022/03/22 02:00:39;;;;;;;26.83;20.55;;;16.30;80.20;;;;;;5053220;28;20041;-65
2022/03/22 02:05:55;;;;;;;27.27;21.38;;;16.30;80.20;;;;;;5051698;28;20441;-65
2022/03/22 02:08:28;;;;;;;28.35;21.75;;;16.40;80.30;;;;;;5037389;28;20489;-65
2022/03/22 02:10:55;;;;;;;30.05;21.52;;;16.30;80.20;;;;;;5035357;28;20546;-65
2022/03/22 02:13:21;;;;;;;30.60;22.33;;;16.60;80.40;;;;;;5053750;28;20091;-66
2022/03/22 02:15:50;;;;;;;26.77;20.70;;;16.10;80.10;;;;;;5053686;28;20073;-66
2022/03/22 02:18:16;;;;;;;25.65;19.52;;;16.00;80.00;;;;;;5036629;28;20049;-65
2022/03/22 02:20:42;;;;;;;28.33;21.17;;;16.30;80.20;;;;;;5053257;28;21963;-65
2022/03/22 02:23:53;;;;;;;31.38;21.63;;;16.30;80.20;;;;;;5049108;28;20406;-66
2022/03/22 02:26:19;;;;;;;29.20;21.52;;;16.20;80.20;;;;;;4963379;28;20059;-65
2022/03/22 02:28:45;;;;;;;26.65;20.10;;;16.10;80.30;;;;;;4953885;28;20498;-66
2022/03/22 02:31:13;;;;;;;28.67;21.38;;;16.30;80.10;;;;;;4931564;29;20044;-66
2022/03/22 02:33:42;;;;;;;30.50;20.98;;;16.20;80.00;;;;;;4939961;28;20126;-65
2022/03/22 02:36:08;;;;;;;27.52;20.80;;;;;;;;;;4953939;28;20058;-65
2022/03/22 02:38:34;;;;;;;31.65;21.60;;;16.30;80.10;;;;;;4973009;28;20066;-65
2022/03/22 02:41:01;;;;;;;26.98;20.65;;;;;;;;;;4967123;28;20039;-65
2022/03/22 02:43:27;;;;;;;30.27;21.08;;;15.90;79.70;;;;;;4965843;28;20061;-65
2022/03/22 02:45:53;;;;;;;29.75;21.42;;;16.10;79.90;;;;;;4953992;28;20043;-65
2022/03/22 02:48:19;;;;;;;29.33;21.90;;;16.10;77.10;;;;;;4953408;29;20124;-65
2022/03/22 02:50:45;;;;;;;29.95;20.90;;;16.20;79.80;;;;;;4953586;28;20059;-67
2022/03/22 02:53:11;;;;;;;30.35;22.40;;;16.30;79.80;;;;;;4953271;28;20039;-65
2022/03/22 02:55:36;;;;;;;30.48;22.13;;;16.10;79.70;;;;;;4953774;28;20449;-66
2022/03/22 02:58:03;;;;;;;28.75;20.58;;;16.20;79.70;;;;;;5037481;28;20127;-65
2022/03/22 03:00:29;;;;;;;31.83;21.77;;;;;;;;;;5052601;28;20033;-65
2022/03/22 03:02:55;;;;;;;29.00;21.40;;;16.40;79.80;;;;;;5050283;28;20080;-65
2022/03/22 03:05:21;;;;;;;28.60;21.17;;;16.20;77.00;;;;;;5053142;28;20119;-65
2022/03/22 03:07:47;;;;;;;25.95;20.55;;;16.20;79.70;;;;;;5039797;28;20060;-65
2022/03/22 03:10:13;;;;;;;26.60;20.60;;;16.00;79.60;;;;;;5050827;28;20433;-64
2022/03/22 03:12:39;;;;;;;30.10;21.60;;;16.20;77.00;;;;;;5052132;28;20059;-65
2022/03/22 03:15:06;;;;;;;33.25;22.92;;;16.30;80.00;;;;;;5033145;28;20448;-65
2022/03/22 03:17:33;;;;;;;27.55;21.42;;;16.10;80.10;;;;;;5034860;28;20491;-64
2022/03/22 03:19:59;;;;;;;30.13;21.88;;;16.10;79.60;;;;;;5052587;28;20053;-65
2022/03/22 03:22:25;;;;;;;25.52;20.52;;;16.10;79.60;;;;;;5050513;28;20041;-64
2022/03/22 03:24:50;;;;;;;26.58;20.58;;;16.00;79.50;;;;;;5052320;28;20087;-63
2022/03/22 03:27:16;;;;;;;28.92;21.27;;;;;;;;;;5043928;28;20551;-63
2022/03/22 03:29:42;;;;;;;29.88;21.65;;;16.30;79.90;;;;;;5045531;28;20040;-62
2022/03/22 03:32:08;;;;;;;28.67;21.27;;;16.40;79.50;;;;;;5030335;28;20115;-63
2022/03/22 03:34:34;;;;;;;29.13;21.02;;;15.90;79.40;;;;;;5052863;28;20091;-62
2022/03/22 03:37:00;;;;;;;28.90;21.50;;;16.20;79.70;;;;;;5053771;28;20040;-67
2022/03/22 03:39:26;;;;;;;26.88;21.00;;;15.90;79.50;;;;;;5054229;28;20464;-66
2022/03/22 03:41:56;;;;;;;30.05;21.33;;;15.70;79.40;;;;;;5042289;28;20042;-66
2022/03/22 03:47:18;;;;;;;28.98;21.13;;;15.90;79.50;;;;;;5056548;28;20056;-66
2022/03/22 03:49:49;;;;;;;27.17;20.73;;;16.10;79.60;;;;;;5055489;28;20115;-67
2022/03/22 03:52:19;;;;;;;28.98;19.58;;;15.90;76.70;;;;;;5038518;28;20051;-65
2022/03/22 03:54:45;;;;;;;28.38;20.60;;;16.20;79.60;;;;;;5056038;28;20119;-66
2022/03/22 03:57:11;;;;;;;28.10;20.65;;;16.00;79.50;;;;;;5055607;28;20048;-67
2022/03/22 03:59:37;;;;;;;29.65;20.80;;;15.80;79.40;;;;;;5054499;28;20115;-66
2022/03/22 04:02:04;;;;;;;29.13;20.80;;;15.80;79.40;;;;;;5055822;28;20127;-66
2022/03/22 04:04:30;;;;;;;28.35;20.08;;;15.70;79.50;;;;;;5056633;28;20068;-67
2022/03/22 04:06:56;;;;;;;27.73;20.55;;;16.10;79.50;;;;;;5047932;28;20513;-66
2022/03/22 04:09:22;;;;;;;30.48;21.02;;;15.90;77.20;;;;;;5038211;28;20122;-66
2022/03/22 04:11:48;;;;;;;29.10;21.52;;;15.80;79.40;;;;;;5055980;28;20060;-66
2022/03/22 04:14:14;;;;;;;29.95;21.20;;;15.80;79.40;;;;;;5056041;28;20045;-65
2022/03/22 04:16:40;;;;;;;28.35;20.45;;;15.60;76.50;;;;;;5056033;28;20091;-65
2022/03/22 04:19:08;;;;;;;28.63;21.05;;;16.00;79.30;;;;;;5055550;28;20040;-65
2022/03/22 04:21:38;;;;;;;29.23;21.05;;;15.70;74.70;;;;;;5055028;28;20487;-67
2022/03/22 04:24:06;;;;;;;28.00;20.38;;;15.80;79.40;;;;;;5056151;28;20445;-66
2022/03/22 04:26:35;;;;;;;29.58;21.02;;;15.70;79.40;;;;;;5052664;28;20045;-65
2022/03/22 04:32:41;;;;;;;30.02;20.60;;;15.60;79.30;;;;;;5055201;28;20033;-65
2022/03/22 04:34:41;;;;;;;27.30;20.63;;;15.80;79.40;;;;;;5038139;28;20110;-66
2022/03/22 04:37:07;;;;;;;24.85;19.35;;;15.80;79.40;;;;;;5037434;28;20418;-66
2022/03/22 04:39:33;;;;;;;27.63;20.13;;;15.80;79.40;;;;;;5047619;28;20042;-67
2022/03/22 04:41:59;;;;;;;29.08;21.08;;;15.70;75.80;;;;;;5052528;28;20071;-65
2022/03/22 04:44:28;;;;;;;24.58;19.25;;;16.10;79.60;;;;;;5055978;28;20056;-65
2022/03/22 04:46:55;;;;;;;28.75;20.45;;;;;;;;;;5054610;28;20044;-65
2022/03/22 04:49:21;;;;;;;25.70;20.10;;;15.80;79.20;;;;;;5054593;28;20064;-65
2022/03/22 04:57:16;;;;;;;24.77;19.45;;;15.80;76.40;;;;;;5050370;28;20457;-65
2022/03/22 04:59:43;;;;;;;29.17;20.88;;;15.60;79.10;;;;;;5054792;28;20132;-65
2022/03/22 05:02:12;;;;;;;29.38;20.02;;;15.80;79.20;;;;;;5050386;28;20057;-66
2022/03/22 05:04:38;;;;;;;30.00;20.95;;;15.90;79.30;;;;;;5036584;28;20037;-65
2022/03/22 05:07:04;;;;;;;26.52;20.92;;;15.80;79.20;;;;;;5036745;28;20057;-66
2022/03/22 05:09:30;;;;;;;26.95;20.48;;;15.60;76.30;;;;;;5055005;28;20044;-66
2022/03/22 05:11:57;;;;;;;27.60;20.88;;;15.80;77.20;;;;;;5055236;28;20534;-66
2022/03/22 05:14:22;;;;;;;25.65;19.48;;;15.60;79.10;;;;;;5006140;28;20052;-66
2022/03/22 05:16:48;;;;;;;28.23;20.90;;;15.60;79.00;;;;;;5035431;28;20409;-65
2022/03/22 05:19:15;;;;;;;28.65;20.15;;;;;;;;;;5053443;28;20395;-67
2022/03/22 05:21:40;;;;;;;27.77;20.42;;;15.80;79.20;;;;;;5054637;28;20437;-65
2022/03/22 05:24:09;;;;;;;27.45;20.98;;;15.70;79.40;;;;;;5037042;28;20044;-66
2022/03/22 05:26:35;;;;;;;25.40;19.77;;;15.60;76.40;;;;;;5036621;28;20045;-65
2022/03/22 05:29:04;;;;;;;26.45;19.63;;;15.70;79.10;;;;;;5054577;28;20052;-66
2022/03/22 05:31:31;;;;;;;28.40;20.75;;;15.80;79.10;;;;;;5019971;28;20143;-66
2022/03/22 05:33:58;;;;;;;25.30;19.60;;;15.80;76.30;;;;;;5054583;28;20175;-65
2022/03/22 05:36:24;;;;;;;28.27;20.38;;;15.60;76.40;;;;;;5054159;28;20402;-66
2022/03/22 05:38:50;;;;;;;26.60;19.60;;;15.60;79.00;;;;;;5036242;28;20048;-67
2022/03/22 05:41:15;;;;;;;26.65;19.75;;;15.50;78.90;;;;;;5036331;28;20094;-65
2022/03/22 05:43:42;;;;;;;29.73;20.25;;;15.50;78.90;;;;;;5036255;28;20422;-67
2022/03/22 05:46:09;;;;;;;30.67;21.38;;;15.60;76.20;;;;;;5054224;28;20134;-67
2022/03/22 05:48:38;;;;;;;28.10;21.25;;;;;;;;;;5038116;28;20041;-65
2022/03/22 05:51:04;;;;;;;26.77;19.40;;;15.40;76.00;;;;;;5020428;28;20128;-66
2022/03/22 05:53:30;;;;;;;27.50;19.80;;;15.60;79.00;;;;;;5054657;28;20391;-67
2022/03/22 05:55:56;;;;;;;26.90;20.08;;;15.80;79.20;;;;;;5054100;28;20053;-66
2022/03/22 05:58:22;;;;;;;26.17;19.73;;;15.70;76.20;;;;;;5054033;28;20044;-66
2022/03/22 06:00:47;;;;;;;27.92;20.70;;;15.50;78.80;;;;;;5053683;28;20473;-67
2022/03/22 06:03:14;;;;;;;27.55;19.75;;;;;;;;;;5053746;28;20047;-65
2022/03/22 06:05:39;;;;;;;27.73;20.63;;;15.70;77.50;;;;;;5037255;28;20041;-66
2022/03/22 06:08:05;;;;;;;24.88;19.88;;;15.40;78.80;;;;;;5053134;28;20480;-66
2022/03/22 06:10:31;;;;;;;28.60;20.83;;;15.60;76.10;;;;;;5053425;28;20053;-67
2022/03/22 06:12:58;;;;;;;27.48;20.52;;;;;;;;;;5053412;28;20049;-65
2022/03/22 06:15:25;;;;;;;28.85;21.73;;;15.70;76.10;;;;;;5053697;28;20120;-65
2022/03/22 06:17:55;;;;;;;23.67;19.15;;;15.80;78.90;;;;;;5035616;28;20418;-65
2022/03/22 06:20:23;;;;;;;27.20;19.77;;;15.40;78.70;;;;;;5044703;28;20102;-65
2022/03/22 06:22:49;;;;;;;28.70;20.08;;;15.70;78.70;;;;;;5040900;28;20467;-65
2022/03/22 06:25:15;;;;;;;25.70;20.27;;;15.60;78.70;;;;;;5053719;28;20052;-65
2022/03/22 06:27:43;;;;;;;26.88;19.48;;;15.80;78.70;;;;;;5052740;28;20624;-66
2022/03/22 06:30:09;;;;;;;29.23;20.73;;;15.60;75.00;;;;;;5053267;28;20395;-66
2022/03/22 06:32:51;;;;;;;25.70;19.17;;;15.80;78.10;;;;;;5053177;28;20536;-64
2022/03/22 06:35:18;;;;;;;26.52;19.20;;;15.90;78.70;;;;;;5053457;28;20589;-67
2022/03/22 06:37:44;;;;;;;26.33;19.92;;;15.80;78.70;;;;;;5052123;28;20048;-66
2022/03/22 06:40:10;;;;;;;27.83;20.98;;;16.00;78.70;;;;;;5032662;28;20037;-66
2022/03/22 06:42:36;;;;;;;26.65;19.88;;;15.90;78.60;;;;;;5049644;28;20049;-65
2022/03/22 06:45:03;;;;;;;25.10;19.40;;;15.90;78.70;;;;;;5053295;28;20123;-65
2022/03/22 06:47:30;;;;;;;28.38;19.95;;;;;;;;;;5052859;28;20103;-65
2022/03/22 06:49:56;;;;;;;26.88;19.52;;;15.80;75.60;;;;;;5052913;28;20056;-65
2022/03/22 06:52:22;;;;;;;25.17;19.60;;;16.00;78.40;;;;;;5053174;28;20041;-65
2022/03/22 06:54:48;;;;;;;28.35;20.08;;;15.90;78.30;;;;;;5051641;28;20437;-66
2022/03/22 06:57:14;;;;;;;25.00;19.30;;;16.30;78.40;;;;;;5046563;28;20041;-66
2022/03/22 06:59:40;;;;;;;28.17;19.40;;;;;;;;;;5052985;28;20090;-65
2022/03/22 07:02:06;;;;;;;27.17;19.40;;;16.20;78.20;;;;;;5052235;28;20041;-65
2022/03/22 07:04:32;;;;;;;25.45;19.88;;;16.30;78.30;;;;;;5052914;28;20098;-65
2022/03/22 07:06:58;;;;;;;25.25;19.67;;;16.20;78.00;;;;;;5034720;28;20040;-66
2022/03/22 07:09:24;;;;;;;27.98;19.85;;;16.40;78.20;;;;;;5052333;28;20045;-66
2022/03/22 07:11:50;;;;;;;28.20;19.48;;;16.30;77.90;;;;;;5035178;28;20076;-67
2022/03/22 07:14:19;;;;;;;26.92;21.05;;;16.20;75.00;;;;;;5040128;28;20048;-66
2022/03/22 07:16:48;;;;;;;29.00;19.90;;;16.50;77.90;;;;;;5051832;28;20120;-66
2022/03/22 07:19:20;;;;;;;25.83;19.40;;;16.50;73.40;;;;;;5043877;28;20231;-66
2022/03/22 07:21:46;;;;;;;28.35;20.02;;;16.80;77.90;;;;;;5043113;28;20077;-66
2022/03/22 07:31:47;;;;;;;28.45;20.25;;;;;;;;;;5055953;28;20036;-67
2022/03/22 07:34:17;;;;;;;27.80;20.52;;;16.80;77.50;;;;;;5038718;28;20071;-67
2022/03/22 07:36:44;;;;;;;26.48;20.00;;;17.00;75.60;;;;;;5041757;28;20067;-66
2022/03/22 07:39:10;;;;;;;25.70;19.88;;;16.90;77.60;;;;;;5046209;28;20037;-66
2022/03/22 07:41:37;;;;;;;28.67;20.33;;;;;;;;;;5022871;28;20053;-65
2022/03/22 07:44:04;;;;;;;24.35;19.10;;;17.50;77.70;;;;;;5041125;28;20489;-70
2022/03/22 07:46:30;;;;;;;25.30;19.90;;;17.30;77.50;;;;;;5051272;28;20106;-70
2022/03/22 07:52:57;;;;;;;27.40;20.42;;;17.40;77.50;;;;;;5039585;28;20053;-70
2022/03/22 07:54:27;;;;;;;25.40;19.33;;;;;;;;;;5046214;28;20064;-69
2022/03/22 07:56:52;;;;;;;26.10;20.83;;;17.60;77.20;;;;;;5038187;28;20084;-71
2022/03/22 07:59:18;;;;;;;26.25;20.00;;;17.40;77.10;;;;;;5039374;28;20530;-70
2022/03/22 08:01:44;;;;;;;24.38;18.75;;;17.80;77.20;;;;;;5038832;28;20049;-70
2022/03/22 08:04:10;;;;;;;24.45;18.95;;;17.70;77.00;;;;;;5049838;28;20467;-70
2022/03/22 08:06:36;;;;;;;24.02;19.45;;;17.70;76.90;;;;;;5059041;28;20518;-71
2022/03/22 08:09:02;;;;;;;22.35;18.33;;;18.10;77.30;;;;;;5059168;28;20414;-70
2022/03/22 08:11:28;;;;;;;26.70;18.50;;;;;;;;;;5058967;28;20410;-69
2022/03/22 08:13:54;;;;;;;23.38;17.77;;;17.90;76.90;;;;;;5055061;28;20151;-64
2022/03/22 08:16:19;;;;;;;26.00;18.90;;;18.10;77.00;;;;;;5037611;28;20041;-64
2022/03/22 08:18:45;;;;;;;22.60;18.40;;;18.30;77.00;;;;;;5038783;28;20401;-65
2022/03/22 08:21:11;;;;;;;24.27;19.17;;;18.50;77.10;;;;;;5039616;28;20053;-65
2022/03/22 08:23:37;;;;;;;26.13;19.30;;;;;;;;;;5047281;28;20103;-64
2022/03/22 08:26:03;;;;;;;24.35;18.52;;;18.40;73.60;;;;;;5055116;28;20084;-69
2022/03/22 08:28:29;;;;;;;23.70;18.63;;;18.50;75.00;;;;;;5055198;28;20123;-64
2022/03/22 08:30:55;;;;;;;23.58;18.42;;;18.60;76.80;;;;;;5037575;28;20056;-62
2022/03/22 08:33:20;;;;;;;24.60;19.05;;;18.60;76.70;;;;;;5055581;28;20087;-62
2022/03/22 08:35:47;;;;;;;27.83;18.13;;;18.70;76.70;;;;;;5055472;28;20059;-62
2022/03/22 08:38:20;;;;;;;24.98;18.80;;;18.60;76.60;;;;;;5046948;28;20029;-63
2022/03/22 08:40:47;;;;;;;24.50;18.25;;;18.80;76.60;;;;;;5055161;28;20045;-67
2022/03/22 08:43:13;;;;;;;22.45;18.25;;;18.80;76.50;;;;;;5055515;28;20081;-63
2022/03/22 08:45:39;;;;;;;21.67;18.35;;;19.10;76.60;;;;;;5055083;28;20045;-62
2022/03/22 08:48:12;;;;;;;22.05;17.83;;;19.00;76.40;;;;;;5055054;28;20120;-63
2022/03/22 08:50:42;;;;;;;21.30;16.25;;;19.10;76.40;;;;;;5054646;28;20045;-63
2022/03/22 08:53:09;;;;;;;21.75;17.40;;;19.10;76.40;;;;;;5053495;28;20052;-62
2022/03/22 08:55:35;;;;;;;22.08;17.52;;;19.10;76.30;;;;;;5046321;28;20041;-63
2022/03/22 08:58:05;;;;;;;30.27;19.38;;;19.30;76.30;;;;;;5050213;28;20120;-63
2022/03/22 09:00:32;;;;;;;29.73;18.38;;;19.20;74.20;;;;;;5054154;28;20122;-72
2022/03/22 09:02:58;;;;;;;28.40;18.50;;;19.10;76.10;;;;;;5005072;28;20041;-62
2022/03/22 09:08:09;;;;;;;30.00;19.42;;;19.20;76.10;;;;;;5035371;28;20049;-62
2022/03/22 09:10:35;;;;;;;32.92;19.77;;;19.40;75.90;;;;;;5034864;28;20499;-62
2022/03/22 09:13:01;;;;;;;29.90;18.52;;;19.40;76.20;;;;;;5053471;28;20087;-62
2022/03/22 09:15:27;;;;;;;29.95;18.10;;;19.60;73.50;;;;;;5036937;28;20471;-62
2022/03/22 09:17:54;;;;;;;24.55;18.33;;;19.30;76.10;;;;;;5054752;28;20128;-65
2022/03/22 09:20:20;;;;;;;28.10;19.33;;;19.50;76.20;;;;;;5054523;28;20053;-65
2022/03/22 09:22:48;;;;;;;25.83;19.65;;;19.40;76.10;;;;;;5054173;28;20041;-62
2022/03/22 09:25:14;;;;;;;26.67;17.85;;;19.40;76.10;;;;;;5054445;28;20041;-62
2022/03/22 09:27:44;;;;;;;25.48;18.45;;;19.40;76.00;;;;;;5035985;28;20053;-62
2022/03/22 09:30:10;;;;;;;28.13;19.02;;;19.50;76.00;;;;;;5034657;28;20099;-62
2022/03/22 09:32:37;;;;;;;24.45;18.70;;;19.20;75.70;;;;;;5035043;28;20044;-62
2022/03/22 09:35:06;;;;;;;26.15;19.45;;;19.60;72.90;;;;;;5044768;28;20045;-63
2022/03/22 09:37:43;;;;;;;29.30;19.17;;;19.30;75.80;;;;;;5036896;28;20048;-62
2022/03/22 09:40:10;;;;;;;25.92;18.48;;;19.70;76.00;;;;;;5054612;28;20045;-62
2022/03/22 09:42:38;;;;;;;23.90;18.67;;;19.60;75.90;;;;;;5054114;28;20052;-63
2022/03/22 09:45:08;;;;;;;27.30;19.02;;;19.70;75.90;;;;;;5053619;28;20049;-62
2022/03/22 09:47:35;;;;;;;26.92;18.08;;;19.60;75.90;;;;;;5053794;28;20045;-62
2022/03/22 09:50:01;;;;;;;28.02;18.30;;;19.60;75.70;;;;;;5036839;28;20044;-65
2022/03/22 09:52:27;;;;;;;22.88;18.05;;;19.60;75.80;;;;;;5054001;28;20044;-62
2022/03/22 09:54:53;;;;;;;28.15;18.08;;;19.50;75.70;;;;;;5036302;28;20035;-63
2022/03/22 09:57:19;;;;;;;25.95;18.08;;;19.70;75.80;;;;;;5053879;28;20498;-63
2022/03/22 09:59:44;;;;;;;25.77;18.42;;;19.80;75.80;;;;;;5054244;28;20037;-63
2022/03/22 10:02:11;;;;;;;26.63;18.27;;;19.50;72.80;;;;;;5049240;28;20404;-61
2022/03/22 10:04:37;;;;;;;26.40;17.83;;;19.70;75.70;;;;;;5027326;28;20033;-62
2022/03/22 10:07:05;;;;;;;25.08;18.08;;;19.90;75.80;;;;;;5037595;28;20041;-67
2022/03/22 10:09:32;;;;;;;21.83;17.30;;;19.50;75.60;;;;;;5052948;28;20061;-62
2022/03/22 10:11:58;;;;;;;27.63;18.10;;;19.50;75.60;;;;;;5053852;28;20387;-62
2022/03/22 10:14:38;;;;;;;24.17;17.73;;;20.00;75.80;;;;;;5053107;28;20124;-62
2022/03/22 10:17:15;;;;;;;23.38;17.48;;;19.70;75.70;;;;;;5052820;28;20048;-64
2022/03/22 10:19:45;;;;;;;23.33;17.25;;;19.80;75.70;;;;;;5043682;28;20548;-63
2022/03/22 10:22:12;;;;;;;29.20;16.90;;;19.60;75.50;;;;;;5033878;28;20041;-63
2022/03/22 10:24:48;;;;;;;25.92;17.77;;;19.80;70.90;;;;;;5033426;28;20046;-72
2022/03/22 10:27:29;;;;;;;26.38;18.05;;;19.70;75.60;;;;;;5051013;28;20055;-63
2022/03/22 10:29:56;;;;;;;25.73;18.08;;;19.90;75.80;;;;;;5053173;28;20084;-66
2022/03/22 10:32:35;;;;;;;24.77;17.63;;;19.90;75.80;;;;;;5035366;28;20049;-64
2022/03/22 10:35:14;;;;;;;26.60;17.50;;;19.90;75.80;;;;;;5035825;28;20045;-63
2022/03/22 10:37:45;;;;;;;25.25;17.98;;;20.00;75.90;;;;;;5036411;28;20041;-69
2022/03/22 10:40:24;;;;;;;25.77;18.58;;;19.80;75.80;;;;;;5050564;28;20095;-66
2022/03/22 10:42:50;;;;;;;28.77;17.30;;;20.00;75.80;;;;;;5053421;28;20044;-63
2022/03/22 10:45:16;;;;;;;26.98;17.90;;;20.00;75.80;;;;;;5034459;28;20080;-64
2022/03/22 10:47:43;;;;;;;23.63;17.48;;;20.10;75.80;;;;;;5052597;28;20088;-63
2022/03/22 10:50:09;;;;;;;26.80;17.27;;;19.80;75.70;;;;;;5053310;28;20044;-63
2022/03/22 10:52:45;;;;;;;25.13;17.90;;;20.10;75.80;;;;;;5052519;28;20044;-66
2022/03/22 10:55:11;;;;;;;24.35;16.60;;;20.30;76.00;;;;;;5032966;28;20060;-68
2022/03/22 10:57:37;;;;;;;24.25;17.50;;;19.90;75.80;;;;;;5033447;28;20041;-63
2022/03/22 11:00:05;;;;;;;22.95;17.15;;;19.90;72.60;;;;;;5015494;28;20509;-71
2022/03/22 11:02:33;;;;;;;25.85;17.65;;;20.60;73.40;;;;;;5052855;28;20112;-67
2022/03/22 11:05:03;;;;;;;25.02;16.50;;;20.20;76.40;;;;;;5052689;28;20564;-63
2022/03/22 11:07:33;;;;;;;24.35;17.35;;;20.20;75.90;;;;;;5050828;28;20041;-62
2022/03/22 11:09:59;;;;;;;27.98;18.05;;;20.10;75.70;;;;;;5011711;28;20061;-63
2022/03/22 11:12:26;;;;;;;24.20;17.02;;;20.00;75.70;;;;;;5030890;28;20046;-65
2022/03/22 11:14:53;;;;;;;23.50;17.67;;;20.30;72.90;;;;;;5030722;28;20037;-68
2022/03/22 11:17:20;;;;;;;26.08;18.60;;;20.10;75.80;;;;;;5031397;28;20041;-64
2022/03/22 11:19:49;;;;;;;25.95;17.98;;;;;;;;;;5014562;28;20041;-64
2022/03/22 11:22:17;;;;;;;25.90;17.33;;;20.40;75.90;;;;;;5031038;28;20047;-65
2022/03/22 11:24:42;;;;;;;27.35;17.58;;;20.40;75.90;;;;;;5015176;28;20431;-65
2022/03/22 11:27:08;;;;;;;24.02;17.08;;;20.30;75.80;;;;;;5028155;28;20133;-65
2022/03/22 11:29:36;;;;;;;26.65;17.98;;;20.50;75.10;;;;;;5012921;28;20061;-64
2022/03/22 11:34:49;;;;;;;30.05;18.25;;;20.50;75.70;;;;;;5037508;28;20131;-72
2022/03/22 11:37:27;;;;;;;29.10;18.73;;;20.50;75.60;;;;;;5029356;28;20081;-70
2022/03/22 11:42:37;;;;;;;28.13;18.88;;;20.60;75.50;;;;;;5032536;28;20133;-67
2022/03/22 11:45:07;;;;;;;29.17;17.70;;;20.70;75.40;;;;;;5002992;28;20124;-63
2022/03/22 11:47:41;;;;;;;29.27;18.73;;;20.80;75.30;;;;;;5013218;28;20096;-65
2022/03/22 11:50:08;;;;;;;28.58;19.40;;;20.50;75.10;;;;;;5025821;28;20451;-63
2022/03/22 11:52:39;;;;;;;25.80;17.80;;;20.80;75.20;;;;;;5015006;28;20183;-62
2022/03/22 11:55:15;;;;;;;32.00;20.08;;;20.80;70.50;;;;;;5014850;28;20060;-63
2022/03/22 11:57:48;;;;;;;27.05;19.13;;;20.50;74.90;;;;;;5033207;28;20045;-64
2022/03/22 12:00:15;;;;;;;28.10;19.60;;;20.80;75.00;;;;;;5036029;28;20551;-62
2022/03/22 12:02:43;;;;;;;33.05;20.38;;;20.80;75.00;;;;;;5019336;28;20381;-64
2022/03/22 12:05:08;;;;;;;28.92;19.55;;;20.80;74.80;;;;;;5016336;28;20097;-62
2022/03/22 12:07:36;;;;;;;27.10;18.95;;;20.70;74.70;;;;;;4998787;28;20488;-64
2022/03/22 12:10:09;;;;;;;31.58;20.67;;;20.60;72.10;;;;;;5016407;28;20397;-62
2022/03/22 12:12:37;;;;;;;30.63;19.83;;;20.90;74.70;;;;;;5016128;28;20065;-66
2022/03/22 12:15:05;;;;;;;26.83;18.83;;;20.60;74.50;;;;;;5032129;28;20053;-63
2022/03/22 12:17:30;;;;;;;31.35;19.45;;;20.80;74.50;;;;;;5018624;28;20046;-65
2022/03/22 12:20:00;;;;;;;27.73;19.65;;;20.90;74.40;;;;;;5035203;28;20048;-63
2022/03/22 12:22:27;;;;;;;26.70;18.25;;;21.10;74.40;;;;;;5031463;28;20053;-68
2022/03/22 12:24:53;;;;;;;26.77;18.35;;;21.10;74.60;;;;;;5035284;28;20037;-67
2022/03/22 12:27:19;;;;;;;25.92;18.17;;;20.90;72.00;;;;;;5035604;28;20048;-66
2022/03/22 12:29:45;;;;;;;28.52;17.95;;;21.10;74.80;;;;;;5035912;28;20037;-62
2022/03/22 12:32:15;;;;;;;28.73;18.90;;;21.20;74.80;;;;;;5036037;28;20054;-63
2022/03/22 12:34:41;;;;;;;24.30;17.65;;;21.00;74.60;;;;;;5034510;28;20045;-64
2022/03/22 12:37:08;;;;;;;25.48;17.40;;;21.00;74.60;;;;;;5016202;28;20046;-64
2022/03/22 12:39:38;;;;;;;29.67;17.95;;;21.10;74.60;;;;;;5020051;28;20056;-62
2022/03/22 12:42:04;;;;;;;28.77;19.35;;;21.00;74.50;;;;;;5035908;28;20118;-64
2022/03/22 12:44:31;;;;;;;27.33;18.13;;;21.30;73.80;;;;;;5035539;28;20041;-66
2022/03/22 12:46:57;;;;;;;25.83;17.33;;;21.30;74.60;;;;;;5035733;28;20076;-62
2022/03/22 12:49:25;;;;;;;28.27;17.13;;;21.50;74.70;;;;;;5035437;28;20491;-63
2022/03/22 12:51:50;;;;;;;25.70;18.63;;;21.30;74.50;;;;;;5033731;28;20395;-65
2022/03/22 12:54:17;;;;;;;32.30;18.77;;;21.40;74.50;;;;;;5015490;28;20038;-62
2022/03/22 12:56:49;;;;;;;28.17;18.20;;;21.20;74.40;;;;;;5012161;28;20407;-63
2022/03/22 12:59:22;;;;;;;24.50;16.92;;;21.10;74.60;;;;;;5035255;28;20547;-65
2022/03/22 13:01:56;;;;;;;;;;;21.20;70.80;;;;;;5032749;28;20049;-62
2022/03/22 13:04:23;;;;;;;25.92;17.60;;;21.00;74.50;;;;;;5035139;28;20299;-62
2022/03/22 13:06:59;;;;;;;23.10;15.13;;;21.20;74.70;;;;;;5017781;28;20141;-63
2022/03/22 13:12:19;;;;;;;24.70;15.70;;;21.40;72.00;;;;;;5014229;28;20053;-65